Time;durP1;ratioP1;P1;durP2;ratioP2;P2;SDS_P1;SDS_P2;PMS_P1;PMS_P2;Temp;Humidity;BMP_temperature;BMP_pressure;BME280_temperature;BME280_humidity;BME280_pressure;Samples;Min_cycle;Max_cycle;Signal;HPM_P1;HPM_P2
2022/06/18 00:00:57;;;;;;;3.77;2.60;;;;;;;;;;4936566;29;20430;-58
2022/06/18 00:03:24;;;;;;;2.60;2.40;;;;;;;;;;4937253;29;20490;-59
2022/06/18 00:05:51;;;;;;;4.07;2.20;;;;;;;;;;4937160;29;20399;-58
2022/06/18 00:08:18;;;;;;;5.97;3.10;;;;;;;;;;4937219;29;20414;-57
2022/06/18 00:10:45;;;;;;;3.20;2.80;;;;;;;;;;4936170;29;20446;-58
2022/06/18 00:15:58;;;;;;;3.70;3.10;;;;;;;;;;4937055;29;20496;-57
2022/06/18 00:18:24;;;;;;;3.83;2.70;;;;;;;;;;4935888;29;20518;-57
2022/06/18 00:20:50;;;;;;;3.50;3.20;;;;;;;;;;4936140;29;20516;-56
2022/06/18 00:23:16;;;;;;;5.97;2.87;;;;;;;;;;4937016;29;20410;-57
2022/06/18 00:25:44;;;;;;;3.20;3.00;;;;;;;;;;4936959;29;20403;-58
2022/06/18 00:28:15;;;;;;;2.77;2.57;;;;;;;;;;4936829;29;20966;-57
2022/06/18 00:30:41;;;;;;;4.63;3.30;;;;;;;;;;4936028;29;20427;-57
2022/06/18 00:33:07;;;;;;;2.97;2.70;;;;;;;;;;4936858;29;20485;-59
2022/06/18 00:35:34;;;;;;;3.47;2.60;;;;;;;;;;4936692;29;20465;-58
2022/06/18 00:38:00;;;;;;;2.80;2.53;;;;;;;;;;4936855;29;20513;-58
2022/06/18 00:40:29;;;;;;;3.00;2.70;;;;;;;;;;4935885;29;20462;-59
2022/06/18 00:42:59;;;;;;;5.20;2.70;;;;;;;;;;4935356;28;20426;-57
2022/06/18 00:45:26;;;;;;;2.80;2.60;;;;;;;;;;4936473;29;20410;-59
2022/06/18 00:48:01;;;;;;;3.90;2.93;;;;;;;;;;4936492;29;20498;-59
2022/06/18 00:50:43;;;;;;;3.70;2.83;;;;;;;;;;4935572;29;20473;-56
2022/06/18 00:53:32;;;;;;;3.30;2.93;;;;;;;;;;4936502;29;20403;-58
2022/06/18 00:56:04;;;;;;;2.97;2.70;;;;;;;;;;4931148;29;20415;-57
2022/06/18 00:58:32;;;;;;;3.30;3.10;;;;;;;;;;4936330;29;20411;-58
2022/06/18 01:00:59;;;;;;;3.17;2.97;;;;;;;;;;4934906;29;20777;-57
2022/06/18 01:03:27;;;;;;;6.10;2.80;;;;;;;;;;4935832;29;20411;-57
2022/06/18 01:05:54;;;;;;;4.60;3.13;;;;;;;;;;4935592;29;20948;-58
2022/06/18 01:08:21;;;;;;;3.20;2.90;;;;;;;;;;4935111;29;20416;-58
2022/06/18 01:10:49;;;;;;;3.40;3.20;;;;;;;;;;4935181;29;20421;-57
2022/06/18 01:13:17;;;;;;;2.93;2.43;;;;;;;;;;4936001;29;20992;-57
2022/06/18 01:15:45;;;;;;;3.07;2.30;;;;;;;;;;4936304;29;20410;-56
2022/06/18 01:18:11;;;;;;;3.17;2.57;;;;;;;;;;4936370;29;20505;-58
2022/06/18 01:20:46;;;;;;;2.50;2.30;;;;;;;;;;4934908;29;20422;-57
2022/06/18 01:23:19;;;;;;;2.70;2.50;;;;;;;;;;4935346;29;20406;-57
2022/06/18 01:25:47;;;;;;;2.80;2.47;;;;;;;;;;4935942;29;20795;-58
2022/06/18 01:28:16;;;;;;;4.07;2.83;;;;;;;;;;4935770;29;20429;-58
2022/06/18 01:30:43;;;;;;;3.30;2.60;;;;;;;;;;4934953;29;20426;-57
2022/06/18 01:33:11;;;;;;;4.53;3.20;;;;;;;;;;4935611;29;20497;-57
2022/06/18 01:35:38;;;;;;;3.80;2.60;;;;;;;;;;4935448;29;20406;-56
2022/06/18 01:38:04;;;;;;;3.03;2.73;;;;;;;;;;4935452;29;20468;-59
2022/06/18 01:40:46;;;;;;;3.60;2.60;;;;;;;;;;4934766;29;20849;-58
2022/06/18 01:43:14;;;;;;;3.07;2.83;;;;;;;;;;4935649;29;20439;-56
2022/06/18 01:45:41;;;;;;;3.70;2.70;;;;;;;;;;4935348;29;20407;-56
2022/06/18 01:48:10;;;;;;;4.17;2.77;;;;;;;;;;4935300;29;20422;-58
2022/06/18 01:50:38;;;;;;;3.70;3.20;;;;;;;;;;4934648;29;20517;-57
2022/06/18 01:53:11;;;;;;;3.67;2.53;;;;;;;;;;4935346;29;20934;-55
2022/06/18 01:55:38;;;;;;;5.60;3.50;;;;;;;;;;4935405;29;20634;-56
2022/06/18 01:58:07;;;;;;;2.67;2.47;;;;;;;;;;4935246;29;20418;-55
2022/06/18 02:00:33;;;;;;;3.77;2.50;;;;;;;;;;4934481;29;20435;-55
2022/06/18 02:02:59;;;;;;;3.57;2.53;;;;;;;;;;4935087;29;20418;-55
2022/06/18 02:05:26;;;;;;;3.53;2.47;;;;;;;;;;4935388;29;20794;-58
2022/06/18 02:07:52;;;;;;;4.30;2.40;;;;;;;;;;4935079;29;20420;-56
2022/06/18 02:10:26;;;;;;;2.80;2.60;;;;;;;;;;4934249;29;20469;-56
2022/06/18 02:12:53;;;;;;;3.83;2.53;;;;;;;;;;4934576;29;20435;-57
2022/06/18 02:15:25;;;;;;;3.20;2.17;;;;;;;;;;4935094;29;20457;-57
2022/06/18 02:17:51;;;;;;;2.70;2.50;;;;;;;;;;4934986;29;20506;-56
2022/06/18 02:20:19;;;;;;;2.63;2.33;;;;;;;;;;4934256;29;20466;-56
2022/06/18 02:22:46;;;;;;;5.07;2.50;;;;;;;;;;4934941;29;20414;-56
2022/06/18 02:25:14;;;;;;;6.07;2.47;;;;;;;;;;4934889;29;20457;-57
2022/06/18 02:27:41;;;;;;;3.33;2.53;;;;;;;;;;4934788;29;20455;-58
2022/06/18 02:30:14;;;;;;;3.10;2.70;;;;;;;;;;4933994;29;20485;-56
2022/06/18 02:33:03;;;;;;;3.47;2.10;;;;;;;;;;4934700;29;20412;-56
2022/06/18 02:35:32;;;;;;;4.40;2.70;;;;;;;;;;4916260;29;20426;-55
2022/06/18 02:37:58;;;;;;;4.03;2.80;;;;;;;;;;4934661;29;20413;-56
2022/06/18 02:40:25;;;;;;;2.57;2.37;;;;;;;;;;4934015;29;20441;-58
2022/06/18 02:42:53;;;;;;;3.90;2.80;;;;;;;;;;4934585;29;20422;-57
2022/06/18 02:45:21;;;;;;;3.47;3.20;;;;;;;;;;4935030;29;20437;-56
2022/06/18 02:47:47;;;;;;;8.30;2.90;;;;;;;;;;4934612;29;20475;-56
2022/06/18 02:50:14;;;;;;;2.70;2.50;;;;;;;;;;4933820;29;20877;-55
2022/06/18 02:52:43;;;;;;;3.83;2.53;;;;;;;;;;4934577;29;20410;-56
2022/06/18 02:55:12;;;;;;;3.13;2.60;;;;;;;;;;4934592;29;20412;-56
2022/06/18 02:57:39;;;;;;;2.90;2.60;;;;;;;;;;4934513;29;20417;-58
2022/06/18 03:00:08;;;;;;;2.73;2.57;;;;;;;;;;4933959;29;20436;-57
2022/06/18 03:02:34;;;;;;;3.00;2.80;;;;;;;;;;4934432;29;20497;-58
2022/06/18 03:05:00;;;;;;;2.30;2.20;;;;;;;;;;4934503;29;20478;-56
2022/06/18 03:07:26;;;;;;;3.10;2.30;;;;;;;;;;4934437;29;20429;-56
2022/06/18 03:12:37;;;;;;;3.20;3.00;;;;;;;;;;4934410;29;20647;-57
2022/06/18 03:15:03;;;;;;;2.77;2.50;;;;;;;;;;4934510;29;20885;-56
2022/06/18 03:17:28;;;;;;;4.77;2.60;;;;;;;;;;4934381;29;20401;-55
2022/06/18 03:19:58;;;;;;;2.40;2.30;;;;;;;;;;4933570;29;20405;-57
2022/06/18 03:22:24;;;;;;;4.50;2.93;;;;;;;;;;4934475;29;20404;-56
2022/06/18 03:24:50;;;;;;;4.03;2.60;;;;;;;;;;4935013;29;20488;-56
2022/06/18 03:27:16;;;;;;;4.20;2.80;;;;;;;;;;4934586;29;20413;-57
2022/06/18 03:29:43;;;;;;;2.90;2.40;;;;;;;;;;4933511;29;20485;-57
2022/06/18 03:32:09;;;;;;;3.00;2.67;;;;;;;;;;4934248;29;20417;-57
2022/06/18 03:34:35;;;;;;;3.70;2.37;;;;;;;;;;4934365;29;20406;-57
2022/06/18 03:37:01;;;;;;;3.13;2.67;;;;;;;;;;4934270;29;20452;-57
2022/06/18 03:39:27;;;;;;;3.07;2.80;;;;;;;;;;4934140;29;20804;-57
2022/06/18 03:41:54;;;;;;;2.80;2.50;;;;;;;;;;4933553;29;20437;-57
2022/06/18 03:44:22;;;;;;;2.83;2.57;;;;;;;;;;4934080;29;20411;-57
2022/06/18 03:46:48;;;;;;;2.70;2.60;;;;;;;;;;4936925;29;20968;-57
2022/06/18 03:49:19;;;;;;;2.77;2.57;;;;;;;;;;4937494;29;20503;-57
2022/06/18 03:51:45;;;;;;;6.47;2.70;;;;;;;;;;4937006;29;20497;-57
2022/06/18 03:54:11;;;;;;;2.57;2.37;;;;;;;;;;4937873;29;20905;-57
2022/06/18 03:56:37;;;;;;;6.50;3.13;;;;;;;;;;4937480;29;20932;-57
2022/06/18 03:59:03;;;;;;;2.73;2.53;;;;;;;;;;4937230;29;20775;-57
2022/06/18 04:01:33;;;;;;;3.10;2.77;;;;;;;;;;4936556;29;20516;-57
2022/06/18 04:03:59;;;;;;;3.23;2.93;;;;;;;;;;4937201;29;20410;-57
2022/06/18 04:06:25;;;;;;;2.83;2.63;;;;;;;;;;4937367;29;20418;-57
2022/06/18 04:08:51;;;;;;;5.13;2.50;;;;;;;;;;4937071;29;20464;-57
2022/06/18 04:11:17;;;;;;;3.10;2.80;;;;;;;;;;4936478;29;20958;-58
2022/06/18 04:13:43;;;;;;;2.80;2.60;;;;;;;;;;4937185;29;20864;-58
2022/06/18 04:16:10;;;;;;;2.77;2.57;;;;;;;;;;4937076;29;20405;-57
2022/06/18 04:18:36;;;;;;;2.30;2.20;;;;;;;;;;4937098;29;20450;-58
2022/06/18 04:21:02;;;;;;;4.70;2.53;;;;;;;;;;4936548;29;20427;-58
2022/06/18 04:23:28;;;;;;;3.77;2.93;;;;;;;;;;4937045;29;20477;-58
2022/06/18 04:25:54;;;;;;;3.90;3.37;;;;;;;;;;4936926;29;20420;-58
2022/06/18 04:28:21;;;;;;;4.17;2.53;;;;;;;;;;4936922;29;20553;-57
2022/06/18 04:30:47;;;;;;;4.70;2.70;;;;;;;;;;4936001;29;20439;-58
2022/06/18 04:33:13;;;;;;;3.73;2.87;;;;;;;;;;4936992;29;20500;-58
2022/06/18 04:35:39;;;;;;;5.40;2.57;;;;;;;;;;4936774;29;20775;-57
2022/06/18 04:38:05;;;;;;;2.50;2.30;;;;;;;;;;4936766;29;20464;-58
2022/06/18 04:40:32;;;;;;;3.00;2.80;;;;;;;;;;4936145;29;20787;-57
2022/06/18 04:43:02;;;;;;;5.80;2.87;;;;;;;;;;4936626;29;20419;-57
2022/06/18 04:45:29;;;;;;;3.43;2.90;;;;;;;;;;4936460;29;20414;-58
2022/06/18 04:47:56;;;;;;;3.57;3.27;;;;;;;;;;4936646;29;20438;-58
2022/06/18 04:50:24;;;;;;;2.70;2.50;;;;;;;;;;4935944;29;20992;-58
2022/06/18 04:52:50;;;;;;;5.90;2.73;;;;;;;;;;4936575;29;20418;-57
2022/06/18 04:55:16;;;;;;;2.97;2.77;;;;;;;;;;4936268;29;20410;-58
2022/06/18 04:57:42;;;;;;;2.93;2.60;;;;;;;;;;4935423;29;20406;-58
2022/06/18 05:00:09;;;;;;;4.30;2.60;;;;;;;;;;4935394;29;20430;-58
2022/06/18 05:02:36;;;;;;;2.83;2.40;;;;;;;;;;4936428;29;20918;-58
2022/06/18 05:05:03;;;;;;;3.70;2.93;;;;;;;;;;4936168;29;20462;-58
2022/06/18 05:07:29;;;;;;;3.30;2.23;;;;;;;;;;4936235;29;20417;-58
2022/06/18 05:09:55;;;;;;;2.63;2.43;;;;;;;;;;4933969;29;20468;-58
2022/06/18 05:12:21;;;;;;;3.33;2.97;;;;;;;;;;4936025;29;20407;-58
2022/06/18 05:14:47;;;;;;;3.17;2.70;;;;;;;;;;4935979;29;20622;-58
2022/06/18 05:17:16;;;;;;;2.90;2.60;;;;;;;;;;4936047;29;20406;-58
2022/06/18 05:19:42;;;;;;;3.13;2.93;;;;;;;;;;4935307;29;20486;-57
2022/06/18 05:22:09;;;;;;;2.60;2.40;;;;;;;;;;4934576;29;20426;-58
2022/06/18 05:24:35;;;;;;;3.40;3.10;;;;;;;;;;4935936;29;20463;-58
2022/06/18 05:27:01;;;;;;;6.53;3.20;;;;;;;;;;4936052;29;20989;-57
2022/06/18 05:29:28;;;;;;;6.03;2.97;;;;;;;;;;4935688;29;20458;-58
2022/06/18 05:31:54;;;;;;;3.33;2.90;;;;;;;;;;4934976;29;20489;-57
2022/06/18 05:34:20;;;;;;;4.47;3.20;;;;;;;;;;4935773;29;20423;-58
2022/06/18 05:36:47;;;;;;;3.03;2.83;;;;;;;;;;4935519;29;20415;-57
2022/06/18 05:39:15;;;;;;;7.77;2.77;;;;;;;;;;4935467;29;20770;-58
2022/06/18 05:41:40;;;;;;;2.80;2.60;;;;;;;;;;4934804;29;20915;-58
2022/06/18 05:44:07;;;;;;;2.73;2.53;;;;;;;;;;4935786;29;20541;-58
2022/06/18 05:46:33;;;;;;;4.33;3.23;;;;;;;;;;4935458;29;20406;-58
2022/06/18 05:48:59;;;;;;;2.80;2.57;;;;;;;;;;4935420;29;20464;-58
2022/06/18 05:51:26;;;;;;;3.07;2.77;;;;;;;;;;4934559;29;20431;-58
2022/06/18 05:53:52;;;;;;;5.93;2.40;;;;;;;;;;4934160;29;20476;-58
2022/06/18 05:56:18;;;;;;;3.73;3.30;;;;;;;;;;4935306;29;20406;-58
2022/06/18 05:58:44;;;;;;;4.10;3.30;;;;;;;;;;4935279;29;20422;-58
2022/06/18 06:01:10;;;;;;;5.00;2.57;;;;;;;;;;4934389;29;20427;-58
2022/06/18 06:03:36;;;;;;;3.10;2.60;;;;;;;;;;4935251;29;20413;-58
2022/06/18 06:06:02;;;;;;;4.73;3.00;;;;;;;;;;4935071;29;20437;-58
2022/06/18 06:08:28;;;;;;;4.13;2.80;;;;;;;;;;4934916;29;20418;-58
2022/06/18 06:13:39;;;;;;;3.20;2.90;;;;;;;;;;4935017;29;20566;-58
2022/06/18 06:16:05;;;;;;;4.40;2.73;;;;;;;;;;4935007;29;20496;-58
2022/06/18 06:18:31;;;;;;;3.03;2.73;;;;;;;;;;4934839;29;20399;-58
2022/06/18 06:20:58;;;;;;;5.67;2.77;;;;;;;;;;4934185;29;21045;-58
2022/06/18 06:23:24;;;;;;;4.90;3.13;;;;;;;;;;4934960;29;20410;-57
2022/06/18 06:25:50;;;;;;;4.33;3.30;;;;;;;;;;4947079;28;20419;-57
2022/06/18 06:28:18;;;;;;;4.20;3.03;;;;;;;;;;4952770;28;20427;-58
2022/06/18 06:30:44;;;;;;;3.50;3.07;;;;;;;;;;4954788;28;20433;-57
2022/06/18 06:33:11;;;;;;;5.67;3.07;;;;;;;;;;4936807;28;20409;-58
2022/06/18 06:35:37;;;;;;;4.13;3.10;;;;;;;;;;4954022;28;20403;-58
2022/06/18 06:38:03;;;;;;;3.80;2.90;;;;;;;;;;4953805;28;20915;-58
2022/06/18 06:40:30;;;;;;;3.60;2.80;;;;;;;;;;4951487;28;20414;-57
2022/06/18 06:42:57;;;;;;;3.00;2.80;;;;;;;;;;4953043;28;20840;-58
2022/06/18 06:45:25;;;;;;;4.90;3.73;;;;;;;;;;4952735;28;20397;-58
2022/06/18 06:47:51;;;;;;;6.83;3.50;;;;;;;;;;4953441;28;20880;-58
2022/06/18 06:50:18;;;;;;;5.10;2.87;;;;;;;;;;4952818;28;20457;-59
2022/06/18 06:52:44;;;;;;;3.67;2.50;;;;;;;;;;4953724;28;20416;-58
2022/06/18 06:57:59;;;;;;;3.10;2.80;;;;;;;;;;4953888;29;20441;-58
2022/06/18 07:00:25;;;;;;;5.73;2.80;;;;;;;;;;4952887;28;20446;-58
2022/06/18 07:02:51;;;;;;;6.70;3.13;;;;;;;;;;4953972;28;20446;-57
2022/06/18 07:05:17;;;;;;;3.03;2.83;;;;;;;;;;4953958;28;20410;-58
2022/06/18 07:07:43;;;;;;;3.40;3.10;;;;;;;;;;4953532;28;20424;-59
2022/06/18 07:10:10;;;;;;;6.23;2.90;;;;;;;;;;4952777;28;20984;-59
2022/06/18 07:12:36;;;;;;;4.13;2.80;;;;;;;;;;4952991;28;20410;-58
2022/06/18 07:15:03;;;;;;;3.07;2.77;;;;;;;;;;4953810;28;20401;-58
2022/06/18 07:17:29;;;;;;;5.00;3.07;;;;;;;;;;4953450;28;20417;-59
2022/06/18 07:19:55;;;;;;;5.83;3.47;;;;;;;;;;4952882;28;20402;-59
2022/06/18 07:22:21;;;;;;;5.90;3.30;;;;;;;;;;4957128;28;20813;-59
2022/06/18 07:24:47;;;;;;;3.57;3.27;;;;;;;;;;4956297;28;20924;-57
2022/06/18 07:27:13;;;;;;;3.13;2.80;;;;;;;;;;4956291;28;20410;-58
2022/06/18 07:29:39;;;;;;;4.20;3.33;;;;;;;;;;4956637;28;20952;-59
2022/06/18 07:32:12;;;;;;;3.17;2.87;;;;;;;;;;4955995;28;20429;-57
2022/06/18 07:34:38;;;;;;;4.97;3.43;;;;;;;;;;4956946;28;20406;-56
2022/06/18 07:37:04;;;;;;;4.43;3.43;;;;;;;;;;4956973;28;20492;-58
2022/06/18 07:39:30;;;;;;;4.17;3.03;;;;;;;;;;4956777;28;20409;-57
2022/06/18 07:41:56;;;;;;;6.20;3.93;;;;;;;;;;4956088;28;20808;-57
2022/06/18 07:44:23;;;;;;;4.10;3.70;;;;;;;;;;4956821;28;20414;-57
2022/06/18 07:46:51;;;;;;;7.13;3.23;;;;;;;;;;4956950;28;20401;-59
2022/06/18 07:49:18;;;;;;;4.77;2.90;;;;;;;;;;4956478;28;20660;-58
2022/06/18 07:51:44;;;;;;;4.90;2.60;;;;;;;;;;4956061;28;20924;-59
2022/06/18 07:54:13;;;;;;;2.83;2.63;;;;;;;;;;4956627;28;20410;-59
2022/06/18 07:56:39;;;;;;;3.23;3.00;;;;;;;;;;4956577;28;20402;-58
2022/06/18 07:59:05;;;;;;;8.30;3.93;;;;;;;;;;4956467;28;20433;-59
2022/06/18 08:01:30;;;;;;;6.20;3.33;;;;;;;;;;4955787;28;20476;-58
2022/06/18 08:03:56;;;;;;;4.20;2.83;;;;;;;;;;4956415;28;20441;-59
2022/06/18 08:06:22;;;;;;;5.20;3.63;;;;;;;;;;4956476;28;20422;-60
2022/06/18 08:08:48;;;;;;;5.67;2.80;;;;;;;;;;4954929;28;20450;-59
2022/06/18 08:11:15;;;;;;;3.00;2.60;;;;;;;;;;4954487;28;20422;-59
2022/06/18 08:13:42;;;;;;;4.47;3.10;;;;;;;;;;4956152;28;20513;-59
2022/06/18 08:16:08;;;;;;;3.63;3.43;;;;;;;;;;4952947;28;20774;-59
2022/06/18 08:18:34;;;;;;;5.53;2.97;;;;;;;;;;4955941;28;20410;-58
2022/06/18 08:21:02;;;;;;;4.33;3.37;;;;;;;;;;4955396;29;20450;-58
2022/06/18 08:23:28;;;;;;;6.43;3.07;;;;;;;;;;4955885;28;20416;-58
2022/06/18 08:25:54;;;;;;;5.23;3.37;;;;;;;;;;4955992;28;20457;-59
2022/06/18 08:28:20;;;;;;;4.10;2.80;;;;;;;;;;4955887;29;20402;-57
2022/06/18 08:30:46;;;;;;;10.60;3.67;;;;;;;;;;4954905;29;20465;-57
2022/06/18 08:33:12;;;;;;;5.63;3.13;;;;;;;;;;4955724;28;20821;-58
2022/06/18 08:35:38;;;;;;;4.03;2.37;;;;;;;;;;4955708;29;20414;-57
2022/06/18 08:38:05;;;;;;;2.80;2.60;;;;;;;;;;4955830;28;20406;-58
2022/06/18 08:40:57;;;;;;;3.53;2.57;;;;;;;;;;4954615;29;20478;-57
2022/06/18 08:43:42;;;;;;;4.07;2.90;;;;;;;;;;4947517;28;20414;-59
2022/06/18 08:46:17;;;;;;;4.73;3.00;;;;;;;;;;4955488;29;20457;-57
2022/06/18 08:48:45;;;;;;;4.07;2.93;;;;;;;;;;4955485;29;20496;-57
2022/06/18 08:51:20;;;;;;;5.53;2.50;;;;;;;;;;4954809;29;20465;-57
2022/06/18 08:53:49;;;;;;;5.83;3.10;;;;;;;;;;4955321;29;20417;-56
2022/06/18 08:56:36;;;;;;;5.03;2.73;;;;;;;;;;4954542;29;20777;-58
2022/06/18 08:59:11;;;;;;;7.03;2.47;;;;;;;;;;4955518;29;20438;-55
2022/06/18 09:01:40;;;;;;;3.63;2.70;;;;;;;;;;4954645;29;20967;-56
2022/06/18 09:04:09;;;;;;;3.13;2.60;;;;;;;;;;4955307;28;20449;-56
2022/06/18 09:06:54;;;;;;;3.77;2.47;;;;;;;;;;4955270;29;20406;-55
2022/06/18 09:09:31;;;;;;;5.13;3.23;;;;;;;;;;4955117;29;20453;-56
2022/06/18 09:12:06;;;;;;;4.80;4.03;;;;;;;;;;4954518;29;20422;-55
2022/06/18 09:14:35;;;;;;;3.83;2.60;;;;;;;;;;4954921;29;20913;-58
2022/06/18 09:17:20;;;;;;;7.00;2.87;;;;;;;;;;4954388;29;20457;-55
2022/06/18 09:19:50;;;;;;;3.27;2.97;;;;;;;;;;4953089;29;20404;-57
2022/06/18 09:22:18;;;;;;;3.10;2.80;;;;;;;;;;4954892;29;20421;-56
2022/06/18 09:24:46;;;;;;;4.80;2.60;;;;;;;;;;4955671;29;20402;-57
2022/06/18 09:27:25;;;;;;;6.40;3.07;;;;;;;;;;4955507;28;20413;-58
2022/06/18 09:30:07;;;;;;;6.60;3.10;;;;;;;;;;4954218;29;20552;-58
2022/06/18 09:32:33;;;;;;;8.43;3.20;;;;;;;;;;4954964;28;20453;-58
2022/06/18 09:35:05;;;;;;;3.33;2.60;;;;;;;;;;4954727;29;20806;-58
2022/06/18 09:37:52;;;;;;;7.37;3.27;;;;;;;;;;4954744;28;20170;-58
2022/06/18 09:40:33;;;;;;;5.40;2.70;;;;;;;;;;4954170;28;20815;-58
2022/06/18 09:43:14;;;;;;;4.90;3.10;;;;;;;;;;4954213;28;20780;-58
2022/06/18 09:45:46;;;;;;;3.67;2.57;;;;;;;;;;4954811;29;20427;-58
2022/06/18 09:48:13;;;;;;;5.33;3.27;;;;;;;;;;4954390;28;20414;-58
2022/06/18 09:50:48;;;;;;;3.30;2.60;;;;;;;;;;4953715;28;20461;-58
2022/06/18 09:53:14;;;;;;;6.27;2.90;;;;;;;;;;4954898;29;20904;-56
2022/06/18 09:55:43;;;;;;;4.73;2.50;;;;;;;;;;4956171;28;20414;-57
2022/06/18 09:58:12;;;;;;;4.67;2.50;;;;;;;;;;4954103;28;20684;-56
2022/06/18 10:00:38;;;;;;;3.57;2.33;;;;;;;;;;4951284;28;20477;-56
2022/06/18 10:03:12;;;;;;;4.00;2.57;;;;;;;;;;4954276;28;20410;-57
2022/06/18 10:08:31;;;;;;;13.20;2.73;;;;;;;;;;4952665;29;20429;-55
2022/06/18 10:11:07;;;;;;;5.93;3.10;;;;;;;;;;4952315;28;20940;-57
2022/06/18 10:13:34;;;;;;;3.77;3.03;;;;;;;;;;4953413;28;20435;-56
2022/06/18 10:16:03;;;;;;;3.13;2.83;;;;;;;;;;4956228;28;20430;-57
2022/06/18 10:18:55;;;;;;;4.83;2.73;;;;;;;;;;4953812;28;20508;-56
2022/06/18 10:21:34;;;;;;;5.27;2.57;;;;;;;;;;4952130;29;20871;-58
2022/06/18 10:24:09;;;;;;;6.83;2.93;;;;;;;;;;4952561;28;20409;-58
2022/06/18 10:26:37;;;;;;;3.30;3.00;;;;;;;;;;4953637;28;20459;-58
2022/06/18 10:29:14;;;;;;;11.37;3.10;;;;;;;;;;4953896;28;20453;-57
2022/06/18 10:31:43;;;;;;;2.80;2.60;;;;;;;;;;4953206;28;20876;-57
2022/06/18 10:34:12;;;;;;;4.63;2.33;;;;;;;;;;4953762;28;20409;-57
2022/06/18 10:36:43;;;;;;;7.03;3.10;;;;;;;;;;4953831;28;20413;-56
2022/06/18 10:39:14;;;;;;;5.10;2.00;;;;;;;;;;4953682;28;20406;-56
2022/06/18 10:41:40;;;;;;;3.50;2.60;;;;;;;;;;4953119;28;20425;-57
2022/06/18 10:44:22;;;;;;;6.27;2.80;;;;;;;;;;4953384;28;20513;-55
2022/06/18 10:46:59;;;;;;;3.50;2.53;;;;;;;;;;4953548;28;20270;-58
2022/06/18 10:49:25;;;;;;;3.00;2.67;;;;;;;;;;4952133;28;20448;-58
2022/06/18 10:51:51;;;;;;;5.10;2.43;;;;;;;;;;4952477;28;20940;-57
2022/06/18 10:54:27;;;;;;;5.27;3.10;;;;;;;;;;4953696;28;20401;-57
2022/06/18 10:56:56;;;;;;;6.10;3.00;;;;;;;;;;4956960;28;20166;-56
2022/06/18 10:59:38;;;;;;;5.53;3.20;;;;;;;;;;4957470;28;20418;-56
2022/06/18 11:02:13;;;;;;;6.23;3.70;;;;;;;;;;4957488;28;20439;-56
2022/06/18 11:04:40;;;;;;;4.00;2.47;;;;;;;;;;4957543;28;20417;-57
2022/06/18 11:07:12;;;;;;;12.33;4.00;;;;;;;;;;4957511;28;20461;-55
2022/06/18 11:09:44;;;;;;;6.00;3.00;;;;;;;;;;4956973;28;20457;-61
2022/06/18 11:12:20;;;;;;;3.67;2.50;;;;;;;;;;4957455;28;20405;-58
2022/06/18 11:14:46;;;;;;;5.23;2.70;;;;;;;;;;4957474;28;20733;-55
2022/06/18 11:17:20;;;;;;;12.27;2.77;;;;;;;;;;4957379;28;20417;-56
2022/06/18 11:19:48;;;;;;;4.73;3.00;;;;;;;;;;4956488;28;20397;-55
2022/06/18 11:22:17;;;;;;;6.07;3.50;;;;;;;;;;4957161;28;20433;-57
2022/06/18 11:24:44;;;;;;;8.10;3.47;;;;;;;;;;4957131;28;20401;-59
2022/06/18 11:27:14;;;;;;;7.93;2.70;;;;;;;;;;4957358;28;20421;-57
2022/06/18 11:29:58;;;;;;;7.70;2.40;;;;;;;;;;4956488;28;20956;-58
2022/06/18 11:32:30;;;;;;;7.10;2.73;;;;;;;;;;4957162;28;20401;-59
2022/06/18 11:35:02;;;;;;;8.73;2.77;;;;;;;;;;4956894;28;20823;-58
2022/06/18 11:37:30;;;;;;;5.20;2.60;;;;;;;;;;4954549;28;20909;-57
2022/06/18 11:39:57;;;;;;;5.23;2.97;;;;;;;;;;4956022;28;20417;-56
2022/06/18 11:42:27;;;;;;;8.33;3.17;;;;;;;;;;4956754;29;20890;-56
2022/06/18 11:44:57;;;;;;;4.27;2.60;;;;;;;;;;4957064;28;20871;-55
2022/06/18 11:47:23;;;;;;;8.27;3.30;;;;;;;;;;4956493;29;20479;-58
2022/06/18 11:49:57;;;;;;;11.23;5.67;;;;;;;;;;4955740;29;20973;-56
2022/06/18 11:52:26;;;;;;;8.63;3.33;;;;;;;;;;4956659;29;20170;-55
2022/06/18 11:54:55;;;;;;;8.73;2.80;;;;;;;;;;4956443;29;20405;-58
2022/06/18 11:57:27;;;;;;;10.13;3.10;;;;;;;;;;4956479;28;20409;-56
2022/06/18 12:00:22;;;;;;;6.60;2.83;;;;;;;;;;4955441;28;20789;-57
2022/06/18 12:02:55;;;;;;;13.43;3.07;;;;;;;;;;4951952;28;20418;-55
2022/06/18 12:05:32;;;;;;;6.77;2.70;;;;;;;;;;4956241;29;20492;-57
2022/06/18 12:07:59;;;;;;;5.00;2.70;;;;;;;;;;4955777;28;20425;-56
2022/06/18 12:10:39;;;;;;;6.40;2.70;;;;;;;;;;4955425;28;20465;-55
2022/06/18 12:13:13;;;;;;;6.87;3.03;;;;;;;;;;4955911;29;20428;-56
2022/06/18 12:15:49;;;;;;;9.27;2.73;;;;;;;;;;4956329;28;20401;-55
2022/06/18 12:18:18;;;;;;;5.17;2.87;;;;;;;;;;4956183;28;20405;-56
2022/06/18 12:20:49;;;;;;;3.80;2.53;;;;;;;;;;4955043;29;20438;-56
2022/06/18 12:23:21;;;;;;;5.33;3.53;;;;;;;;;;4955982;29;20525;-56
2022/06/18 12:25:50;;;;;;;8.33;3.20;;;;;;;;;;4955905;28;20449;-57
2022/06/18 12:28:24;;;;;;;6.93;2.60;;;;;;;;;;4955957;29;20930;-56
2022/06/18 12:31:01;;;;;;;4.60;3.00;;;;;;;;;;4955581;28;20506;-55
2022/06/18 12:33:27;;;;;;;12.40;3.00;;;;;;;;;;4955754;29;20398;-56
2022/06/18 12:36:00;;;;;;;4.73;2.63;;;;;;;;;;4955812;28;20774;-56
2022/06/18 12:38:35;;;;;;;9.03;4.10;;;;;;;;;;4955638;28;20257;-56
2022/06/18 12:41:20;;;;;;;5.13;3.03;;;;;;;;;;4955111;28;20480;-55
2022/06/18 12:43:58;;;;;;;12.27;2.70;;;;;;;;;;4955959;29;20522;-57
2022/06/18 12:46:44;;;;;;;10.30;3.73;;;;;;;;;;4954760;29;20776;-56
2022/06/18 12:49:14;;;;;;;10.70;3.33;;;;;;;;;;4955687;28;20457;-58
2022/06/18 12:51:49;;;;;;;4.97;2.83;;;;;;;;;;4955045;29;20430;-56
2022/06/18 12:54:24;;;;;;;7.30;2.90;;;;;;;;;;4955652;28;20405;-57
2022/06/18 12:57:02;;;;;;;7.63;3.53;;;;;;;;;;4955457;29;20492;-57
2022/06/18 12:59:38;;;;;;;10.50;3.53;;;;;;;;;;4955454;29;20496;-56
2022/06/18 13:02:07;;;;;;;10.03;3.70;;;;;;;;;;4955069;29;20532;-56
2022/06/18 13:04:37;;;;;;;7.77;3.40;;;;;;;;;;4955380;29;20925;-56
2022/06/18 13:07:21;;;;;;;6.53;2.57;;;;;;;;;;4955212;28;20449;-56
2022/06/18 13:09:54;;;;;;;6.00;2.90;;;;;;;;;;4954485;28;20461;-57
2022/06/18 13:12:35;;;;;;;8.53;3.43;;;;;;;;;;4955173;28;20882;-57
2022/06/18 13:15:00;;;;;;;5.20;2.90;;;;;;;;;;4955263;29;20409;-58
2022/06/18 13:17:34;;;;;;;6.40;3.43;;;;;;;;;;4954390;28;20414;-57
2022/06/18 13:20:03;;;;;;;5.77;3.50;;;;;;;;;;4953914;28;20210;-56
2022/06/18 13:22:29;;;;;;;8.27;3.10;;;;;;;;;;4955015;28;20550;-59
2022/06/18 13:30:43;;;;;;;9.37;3.70;;;;;;;;;;4954145;29;20480;-56
2022/06/18 13:33:12;;;;;;;6.60;2.90;;;;;;;;;;4954826;28;20398;-55
2022/06/18 13:35:59;;;;;;;7.10;3.77;;;;;;;;;;4954787;29;20955;-58
2022/06/18 13:38:25;;;;;;;7.70;3.20;;;;;;;;;;4954688;28;20394;-56
2022/06/18 13:40:54;;;;;;;9.80;3.27;;;;;;;;;;4954083;29;20801;-57
2022/06/18 13:43:20;;;;;;;9.23;3.70;;;;;;;;;;4954657;28;20585;-56
2022/06/18 13:46:02;;;;;;;8.67;3.40;;;;;;;;;;4954758;29;20405;-56
2022/06/18 13:48:28;;;;;;;6.60;3.13;;;;;;;;;;4954439;28;20417;-57
2022/06/18 13:50:54;;;;;;;6.03;2.93;;;;;;;;;;4953745;29;20468;-57
2022/06/18 13:53:25;;;;;;;7.10;3.53;;;;;;;;;;4954482;29;20442;-55
2022/06/18 13:55:51;;;;;;;7.73;3.73;;;;;;;;;;4954520;28;20976;-57
2022/06/18 13:58:34;;;;;;;8.60;3.53;;;;;;;;;;4954440;28;20401;-57
2022/06/18 14:01:19;;;;;;;8.43;3.40;;;;;;;;;;4953678;28;20433;-58
2022/06/18 14:03:48;;;;;;;9.37;3.23;;;;;;;;;;4954360;28;20410;-58
2022/06/18 14:06:15;;;;;;;5.30;2.67;;;;;;;;;;4954358;29;20421;-56
2022/06/18 14:08:47;;;;;;;4.70;3.17;;;;;;;;;;4954150;28;20417;-56
2022/06/18 14:11:14;;;;;;;7.07;3.60;;;;;;;;;;4953490;29;20433;-56
2022/06/18 14:13:47;;;;;;;6.83;3.40;;;;;;;;;;4954006;29;20520;-56
2022/06/18 14:16:25;;;;;;;7.10;3.33;;;;;;;;;;4954412;28;20443;-55
2022/06/18 14:18:51;;;;;;;6.50;3.00;;;;;;;;;;4954147;28;20409;-59
2022/06/18 14:21:25;;;;;;;5.43;3.63;;;;;;;;;;4953407;29;20805;-56
2022/06/18 14:23:56;;;;;;;6.57;3.30;;;;;;;;;;4954514;28;20405;-58
2022/06/18 14:26:22;;;;;;;3.23;2.93;;;;;;;;;;4953999;28;20402;-59
2022/06/18 14:28:48;;;;;;;5.40;3.20;;;;;;;;;;4953785;28;20492;-57
2022/06/18 14:31:32;;;;;;;5.87;3.07;;;;;;;;;;4953020;29;20505;-58
2022/06/18 14:34:09;;;;;;;5.57;3.53;;;;;;;;;;4956211;28;20178;-57
2022/06/18 14:36:40;;;;;;;4.93;3.50;;;;;;;;;;4945353;29;20521;-56
2022/06/18 14:39:27;;;;;;;4.23;3.30;;;;;;;;;;4954970;28;20405;-58
2022/06/18 14:42:07;;;;;;;5.43;2.90;;;;;;;;;;4952341;29;21073;-58
2022/06/18 14:44:36;;;;;;;13.23;3.43;;;;;;;;;;4951921;28;20464;-58
2022/06/18 14:47:09;;;;;;;5.53;3.60;;;;;;;;;;4951775;28;20777;-57
2022/06/18 14:49:35;;;;;;;7.20;3.60;;;;;;;;;;4952508;28;20461;-58
2022/06/18 14:52:10;;;;;;;4.23;3.10;;;;;;;;;;4952620;28;20781;-58
2022/06/18 14:54:55;;;;;;;9.57;3.37;;;;;;;;;;4953702;28;20177;-58
2022/06/18 14:57:31;;;;;;;9.20;3.30;;;;;;;;;;4953593;28;21021;-58
2022/06/18 15:00:23;;;;;;;7.47;3.50;;;;;;;;;;4952745;28;20497;-58
2022/06/18 15:02:51;;;;;;;4.60;2.83;;;;;;;;;;4951962;28;20416;-57
2022/06/18 15:05:22;;;;;;;5.20;3.30;;;;;;;;;;4952287;28;20422;-57
2022/06/18 15:07:48;;;;;;;5.63;4.10;;;;;;;;;;4953610;28;20441;-58
2022/06/18 15:10:16;;;;;;;4.43;3.60;;;;;;;;;;4952681;28;20762;-58
2022/06/18 15:12:42;;;;;;;7.00;3.60;;;;;;;;;;4952357;28;20429;-58
2022/06/18 15:15:12;;;;;;;12.27;3.20;;;;;;;;;;4952504;28;20402;-58
2022/06/18 15:20:47;;;;;;;5.73;3.70;;;;;;;;;;4952565;29;20425;-58